createdAt,value
2022-08-05T00:01:49.118Z,10.77
2022-08-05T00:04:17.772Z,11.13
2022-08-05T00:06:47.202Z,12.68
2022-08-05T00:09:19.526Z,12.77
2022-08-05T00:11:49.661Z,12.75
2022-08-05T00:14:27.874Z,12.90
2022-08-05T00:16:57.514Z,13.27
2022-08-05T00:19:33.097Z,13.57
2022-08-05T00:22:08.117Z,14.27
2022-08-05T00:24:42.286Z,15.25
2022-08-05T00:27:28.583Z,14.45
2022-08-05T00:29:57.668Z,16.83
2022-08-05T00:32:27.827Z,15.60
2022-08-05T00:35:06.559Z,16.23
2022-08-05T00:37:50.420Z,17.20
2022-08-05T00:40:27.114Z,17.33
2022-08-05T00:43:01.671Z,18.52
2022-08-05T00:45:42.792Z,18.35
2022-08-05T00:48:31.201Z,19.55
2022-08-05T00:50:58.782Z,20.30
2022-08-05T00:54:00.547Z,20.08
2022-08-05T00:56:17.207Z,19.70
2022-08-05T00:58:45.165Z,19.27
2022-08-05T01:01:15.427Z,20.30
2022-08-05T01:03:54.679Z,21.15
2022-08-05T01:06:21.873Z,19.85
2022-08-05T01:09:00.510Z,18.05
2022-08-05T01:11:37.185Z,18.00
2022-08-05T01:14:28.297Z,16.75
2022-08-05T01:17:07.908Z,16.75
2022-08-05T01:20:01.417Z,15.50
2022-08-05T01:23:14.311Z,15.05
2022-08-05T01:26:04.477Z,16.15
2022-08-05T01:29:05.524Z,15.77
2022-08-05T01:31:54.247Z,19.05
2022-08-05T01:34:36.639Z,18.75
2022-08-05T01:37:13.964Z,21.75
2022-08-05T01:39:54.942Z,23.52
2022-08-05T01:42:27.917Z,25.88
2022-08-05T01:45:03.185Z,25.65
2022-08-05T01:47:39.462Z,25.77
2022-08-05T01:50:28.834Z,25.42
2022-08-05T01:53:01.419Z,25.70
2022-08-05T01:55:32.543Z,25.85
2022-08-05T01:58:10.465Z,25.02
2022-08-05T02:00:48.191Z,26.83
2022-08-05T02:03:31.303Z,28.52
2022-08-05T02:06:03.731Z,30.88
2022-08-05T02:08:58.393Z,29.15
2022-08-05T02:11:33.184Z,35.60
2022-08-05T02:14:14.942Z,39.40
2022-08-05T02:17:00.919Z,31.75
2022-08-05T02:19:34.931Z,34.88
2022-08-05T02:22:25.784Z,31.92
2022-08-05T02:25:02.893Z,32.78
2022-08-05T02:27:58.070Z,33.28
2022-08-05T02:30:23.246Z,30.95
2022-08-05T02:32:55.686Z,30.15
2022-08-05T02:35:28.237Z,33.15
2022-08-05T02:38:02.257Z,33.38
2022-08-05T02:40:31.298Z,34.67
2022-08-05T02:42:59.615Z,32.95
2022-08-05T02:45:28.717Z,32.47
2022-08-05T02:48:17.159Z,32.30
2022-08-05T02:50:47.306Z,31.52
2022-08-05T02:53:19.024Z,32.40
2022-08-05T02:56:00.051Z,34.30
2022-08-05T02:58:30.809Z,36.00
2022-08-05T03:01:02.275Z,36.65
2022-08-05T03:03:33.835Z,36.72
2022-08-05T03:06:55.890Z,36.55
2022-08-05T03:09:08.095Z,37.42
2022-08-05T03:11:55.999Z,36.10
2022-08-05T03:14:22.586Z,36.90
2022-08-05T03:16:49.779Z,36.05
2022-08-05T03:19:33.259Z,37.60
2022-08-05T03:22:01.436Z,38.03
2022-08-05T03:24:30.393Z,34.65
2022-08-05T03:27:01.074Z,37.22
2022-08-05T03:29:45.407Z,34.10
2022-08-05T03:32:19.887Z,33.25
2022-08-05T03:34:50.432Z,36.35
2022-08-05T03:37:22.668Z,38.25
2022-08-05T03:39:59.308Z,37.72
2022-08-05T03:42:29.042Z,38.08
2022-08-05T03:44:59.147Z,41.55
2022-08-05T03:47:35.233Z,36.55
2022-08-05T03:50:03.030Z,38.13
2022-08-05T03:55:07.186Z,39.20
2022-08-05T03:56:00.689Z,39.42
2022-08-05T03:58:29.063Z,42.90
2022-08-05T04:01:00.278Z,45.10
2022-08-05T04:03:29.666Z,45.40
2022-08-05T04:05:59.210Z,46.47
2022-08-05T04:08:34.606Z,48.30
2022-08-05T04:11:07.376Z,49.50
2022-08-05T04:13:50.247Z,50.80
2022-08-05T04:16:24.912Z,50.92
2022-08-05T04:18:54.794Z,51.25
2022-08-05T04:22:09.205Z,51.22
2022-08-05T04:24:18.927Z,48.15
2022-08-05T04:26:49.785Z,51.53
2022-08-05T04:29:17.258Z,44.90
2022-08-05T04:31:44.414Z,49.92
2022-08-05T04:34:19.634Z,50.13
2022-08-05T04:37:00.943Z,44.75
2022-08-05T04:39:31.325Z,46.90
2022-08-05T04:41:59.433Z,48.28
2022-08-05T04:44:29.937Z,48.95
2022-08-05T04:47:09.362Z,49.83
2022-08-05T04:50:01.445Z,44.03
2022-08-05T04:52:27.628Z,42.90
2022-08-05T04:54:57.391Z,40.67
2022-08-05T04:57:29.214Z,38.88
2022-08-05T04:59:58.497Z,40.05
2022-08-05T05:02:41.446Z,38.03
2022-08-05T05:05:26.624Z,40.90
2022-08-05T05:08:05.624Z,41.10
2022-08-05T05:10:55.946Z,40.85
2022-08-05T05:13:23.765Z,39.55
2022-08-05T05:15:56.689Z,41.58
2022-08-05T05:18:31.362Z,39.63
2022-08-05T05:21:02.145Z,40.22
2022-08-05T05:24:02.412Z,42.88
2022-08-05T05:26:17.719Z,44.80
2022-08-05T05:28:45.360Z,44.10
2022-08-05T05:31:12.913Z,44.63
2022-08-05T05:33:58.847Z,43.50
2022-08-05T05:36:28.527Z,42.08
2022-08-05T05:38:57.567Z,44.72
2022-08-05T05:41:25.047Z,39.88
2022-08-05T05:44:37.007Z,39.20
2022-08-05T05:46:54.532Z,37.60
2022-08-05T05:49:25.426Z,37.13
2022-08-05T05:51:53.548Z,36.72
2022-08-05T05:54:21.034Z,36.08
2022-08-05T05:56:48.297Z,37.03
2022-08-05T05:59:15.510Z,35.28
2022-08-05T06:01:57.767Z,36.70
2022-08-05T06:04:25.477Z,36.42
2022-08-05T06:06:52.726Z,36.65
2022-08-05T06:09:27.484Z,33.22
2022-08-05T06:12:09.688Z,31.58
2022-08-05T06:14:40.204Z,30.33
2022-08-05T06:17:24.303Z,28.80
2022-08-05T06:19:57.129Z,26.92
2022-08-05T06:22:28.962Z,27.25
2022-08-05T06:24:57.629Z,29.23
2022-08-05T06:28:12.174Z,28.20
2022-08-05T06:30:17.950Z,27.85
2022-08-05T06:32:50.764Z,26.73
2022-08-05T06:36:03.886Z,26.15
2022-08-05T06:38:08.312Z,23.70
2022-08-05T06:40:44.256Z,24.60
2022-08-05T06:43:51.693Z,23.60
2022-08-05T06:46:06.964Z,21.40
2022-08-05T06:48:56.370Z,21.00
2022-08-05T06:51:30.161Z,22.05
2022-08-05T06:54:03.303Z,21.25
2022-08-05T06:56:34.270Z,24.33
2022-08-05T06:59:03.645Z,16.13
2022-08-05T07:01:36.094Z,15.00
2022-08-05T07:04:04.127Z,16.08
2022-08-05T07:06:31.986Z,16.83
2022-08-05T07:09:04.143Z,16.42
2022-08-05T07:11:37.044Z,14.50
2022-08-05T07:14:29.612Z,15.23
2022-08-05T07:18:02.278Z,11.35
2022-08-05T07:22:43.921Z,9.95
2022-08-05T07:25:55.577Z,10.73
2022-08-05T07:28:12.653Z,10.60
2022-08-05T07:30:56.398Z,11.00
2022-08-05T07:33:36.634Z,11.20
2022-08-05T07:36:20.862Z,9.85
2022-08-05T07:38:54.704Z,9.48
2022-08-05T07:42:13.103Z,9.18
2022-08-05T07:44:18.982Z,10.15
2022-08-05T07:46:54.917Z,8.57
2022-08-05T07:49:25.984Z,9.88
2022-08-05T07:51:55.170Z,9.85
2022-08-05T07:54:38.548Z,9.60
2022-08-05T07:58:02.434Z,10.23
2022-08-05T08:00:28.223Z,9.10
2022-08-05T08:03:16.112Z,9.23
2022-08-05T08:05:56.458Z,9.50
2022-08-05T08:08:45.969Z,8.60
2022-08-05T08:12:00.285Z,12.15
2022-08-05T08:14:41.097Z,29.05
2022-08-05T08:17:17.378Z,548.28
2022-08-05T08:21:03.379Z,277.05
2022-08-05T08:24:50.994Z,706.72
2022-08-05T08:31:27.194Z,730.33
2022-08-05T08:35:26.669Z,651.13
2022-08-05T08:45:18.095Z,194.30
2022-08-05T08:50:52.826Z,969.35
2022-08-05T09:06:24.311Z,798.83
2022-08-05T10:01:58.234Z,999.90
2022-08-05T10:19:09.484Z,999.90
2022-08-05T10:19:12.872Z,999.90
2022-08-05T10:21:40.803Z,999.90
2022-08-05T10:25:01.564Z,999.90
2022-08-05T10:28:53.712Z,999.90
2022-08-05T10:33:01.020Z,999.90
2022-08-05T10:35:40.628Z,999.90
2022-08-05T10:38:33.046Z,999.90
2022-08-05T10:48:53.001Z,999.90
2022-08-05T10:51:28.706Z,999.90
2022-08-05T10:54:05.620Z,999.90
2022-08-05T10:56:45.594Z,999.90
2022-08-05T11:00:04.183Z,999.90
2022-08-05T11:02:14.469Z,999.90
2022-08-05T11:04:58.658Z,999.90
2022-08-05T11:07:33.338Z,999.90
2022-08-05T11:10:23.212Z,999.90
2022-08-05T11:12:56.546Z,999.90
2022-08-05T11:16:00.235Z,999.90
2022-08-05T11:18:34.025Z,999.90
2022-08-05T11:21:11.762Z,999.90
2022-08-05T11:24:04.625Z,999.90
2022-08-05T11:26:32.484Z,999.90
2022-08-05T11:29:13.345Z,999.90
2022-08-05T11:31:57.045Z,999.90
2022-08-05T11:34:47.647Z,999.90
2022-08-05T11:38:36.505Z,999.90
2022-08-05T11:41:35.556Z,999.90
2022-08-05T11:44:40.463Z,999.90
2022-08-05T11:47:10.882Z,999.90
2022-08-05T11:49:43.356Z,999.90
2022-08-05T11:52:29.176Z,999.90
2022-08-05T11:54:58.605Z,999.90
2022-08-05T11:57:30.640Z,999.90
2022-08-05T12:00:28.722Z,999.90
2022-08-05T12:02:56.690Z,999.90
2022-08-05T12:05:32.332Z,999.90
2022-08-05T12:08:11.279Z,999.90
2022-08-05T12:10:45.490Z,999.90
2022-08-05T12:13:17.087Z,999.90
2022-08-05T12:15:49.998Z,999.90
2022-08-05T12:18:19.051Z,999.90
2022-08-05T12:20:48.202Z,999.90
2022-08-05T12:23:16.643Z,999.90
2022-08-05T12:25:56.863Z,999.90
2022-08-05T12:28:34.899Z,999.90
2022-08-05T12:31:07.185Z,999.90
2022-08-05T12:33:45.997Z,999.90
2022-08-05T12:36:27.566Z,999.90
2022-08-05T12:39:09.277Z,999.90
2022-08-05T12:46:29.220Z,999.90
2022-08-05T12:49:12.949Z,999.90
2022-08-05T12:55:39.535Z,845.47
2022-08-05T12:58:49.557Z,102.05
2022-08-05T13:02:03.964Z,552.00
2022-08-05T13:04:41.680Z,913.28
2022-08-05T13:10:28.651Z,732.65
2022-08-05T13:13:06.494Z,686.05
2022-08-05T13:15:50.204Z,878.33
2022-08-05T13:18:20.185Z,999.90
2022-08-05T13:20:50.311Z,411.42
2022-08-05T13:23:22.884Z,999.90
2022-08-05T13:25:59.513Z,999.90
2022-08-05T13:28:29.088Z,999.90
2022-08-05T13:30:59.493Z,999.90
2022-08-05T13:34:21.465Z,999.90
2022-08-05T13:36:18.419Z,999.90
2022-08-05T13:38:45.802Z,999.90
2022-08-05T13:41:19.352Z,999.90
2022-08-05T13:43:55.170Z,999.90
2022-08-05T13:46:50.880Z,999.90
2022-08-05T13:49:11.723Z,999.90
2022-08-05T13:51:46.438Z,999.90
2022-08-05T13:54:17.173Z,999.90
2022-08-05T13:56:50.996Z,999.90
2022-08-05T13:59:24.591Z,999.90
2022-08-05T14:01:58.166Z,999.90
2022-08-05T14:04:52.599Z,999.90
2022-08-05T14:07:26.538Z,999.90
2022-08-05T14:10:11.194Z,999.90
2022-08-05T14:12:38.507Z,999.90
2022-08-05T14:16:07.118Z,999.90
2022-08-05T14:17:57.758Z,999.90
2022-08-05T14:20:29.352Z,999.90
2022-08-05T14:23:00.207Z,999.90
2022-08-05T14:25:30.190Z,999.90
2022-08-05T14:27:58.593Z,999.90
2022-08-05T14:30:28.038Z,999.90
2022-08-05T14:32:56.760Z,999.90
2022-08-05T14:35:37.577Z,999.90
2022-08-05T14:38:27.705Z,999.90
2022-08-05T14:40:59.042Z,999.90
2022-08-05T14:44:02.575Z,999.90
2022-08-05T14:46:13.500Z,999.90
2022-08-05T14:48:40.774Z,999.90
2022-08-05T14:51:08.750Z,999.90
2022-08-05T14:53:44.377Z,999.90
2022-08-05T14:56:13.296Z,999.90
2022-08-05T14:58:47.799Z,999.90
2022-08-05T15:01:24.487Z,999.90
2022-08-05T15:04:11.485Z,999.90
2022-08-05T15:06:40.400Z,999.90
2022-08-05T15:09:07.979Z,999.90
2022-08-05T15:11:51.628Z,999.90
2022-08-05T15:14:35.097Z,999.90
2022-08-05T15:17:10.032Z,999.90
2022-08-05T15:19:56.976Z,999.90
2022-08-05T15:22:27.249Z,999.90
2022-08-05T15:24:58.855Z,999.90
2022-08-05T15:27:26.267Z,999.90
2022-08-05T15:29:59.572Z,999.90
2022-08-05T15:32:27.357Z,999.90
2022-08-05T15:34:57.359Z,999.90
2022-08-05T15:38:33.291Z,999.90
2022-08-05T15:41:00.502Z,999.90
2022-08-05T15:43:12.616Z,999.90
2022-08-05T15:45:47.395Z,999.90
2022-08-05T15:48:15.275Z,999.90
2022-08-05T15:50:43.612Z,999.90
2022-08-05T15:53:13.825Z,999.90
2022-08-05T15:56:01.187Z,999.90
2022-08-05T15:58:29.731Z,999.90
2022-08-05T16:01:11.874Z,999.90
2022-08-05T16:03:44.814Z,999.90
2022-08-05T16:06:20.299Z,999.90
2022-08-05T16:08:51.242Z,999.90
2022-08-05T16:11:42.728Z,999.90
2022-08-05T16:14:10.220Z,999.90
2022-08-05T16:16:46.002Z,999.90
2022-08-05T16:19:25.627Z,999.90
2022-08-05T16:22:03.453Z,999.90
2022-08-05T16:24:41.222Z,999.90
2022-08-05T16:27:18.198Z,999.90
2022-08-05T16:29:50.957Z,999.90
2022-08-05T16:32:28.756Z,999.90
2022-08-05T16:34:58.791Z,999.90
2022-08-05T16:38:15.391Z,999.90
2022-08-05T16:40:26.471Z,999.90
2022-08-05T16:42:57.078Z,999.90
2022-08-05T16:46:03.673Z,999.90
2022-08-05T16:48:11.507Z,999.90
2022-08-05T16:50:53.209Z,999.90
2022-08-05T16:53:22.915Z,999.90
2022-08-05T16:55:59.239Z,999.90
2022-08-05T16:58:26.900Z,999.90
2022-08-05T17:00:54.217Z,999.90
2022-08-05T17:03:22.302Z,999.90
2022-08-05T17:05:53.857Z,999.90
2022-08-05T17:08:36.777Z,999.90
2022-08-05T17:11:12.730Z,999.90
2022-08-05T17:13:45.432Z,999.90
2022-08-05T17:16:29.756Z,999.90
2022-08-05T17:19:00.838Z,999.90
2022-08-05T17:21:35.441Z,999.90
2022-08-05T17:24:30.327Z,999.90
2022-08-05T17:26:58.854Z,999.90
2022-08-05T17:29:33.915Z,999.90
2022-08-05T17:32:11.405Z,999.90
2022-08-05T17:34:48.081Z,999.90
2022-08-05T17:37:36.019Z,999.90
2022-08-05T17:40:10.096Z,999.90
2022-08-05T17:42:41.670Z,999.90
2022-08-05T17:45:22.093Z,999.90
2022-08-05T17:47:55.727Z,999.90
2022-08-05T17:50:28.435Z,999.90
2022-08-05T17:53:02.350Z,999.90
2022-08-05T17:55:37.710Z,999.90
2022-08-05T17:58:09.570Z,999.90
2022-08-05T18:00:44.593Z,999.90
2022-08-05T18:03:24.110Z,999.90
2022-08-05T18:06:05.619Z,999.90
2022-08-05T18:08:33.581Z,999.90
2022-08-05T18:11:01.227Z,999.90
2022-08-05T18:13:36.440Z,999.90
2022-08-05T18:16:04.824Z,999.90
2022-08-05T18:18:33.634Z,999.90
2022-08-05T18:21:13.320Z,999.90
2022-08-05T18:23:47.394Z,999.90
2022-08-05T18:26:14.677Z,999.90
2022-08-05T18:28:46.365Z,999.90
2022-08-05T18:31:15.805Z,999.90
2022-08-05T18:33:47.095Z,999.90
2022-08-05T18:36:17.490Z,999.90
2022-08-05T18:38:46.562Z,999.90
2022-08-05T18:41:58.404Z,999.90
2022-08-05T18:44:05.711Z,999.90
2022-08-05T18:46:33.891Z,999.90
2022-08-05T18:49:19.811Z,438.00
2022-08-05T18:52:08.785Z,999.90
2022-08-05T18:54:36.389Z,999.90
2022-08-05T18:57:09.540Z,999.90
2022-08-05T19:00:01.822Z,562.08
2022-08-05T19:02:29.708Z,734.10
2022-08-05T19:05:02.965Z,853.58
2022-08-05T19:07:49.522Z,730.85
2022-08-05T19:10:26.444Z,838.38
2022-08-05T19:12:53.957Z,999.90
2022-08-05T19:15:56.885Z,802.67
2022-08-05T19:18:13.652Z,744.72
2022-08-05T19:20:52.042Z,559.38
2022-08-05T19:24:03.904Z,999.90
2022-08-05T19:26:09.185Z,560.03
2022-08-05T19:28:43.688Z,804.17
2022-08-05T19:31:13.534Z,999.90
2022-08-05T19:33:48.710Z,999.90
2022-08-05T19:36:29.441Z,999.90
2022-08-05T19:39:00.565Z,999.90
2022-08-05T19:42:05.732Z,999.90
2022-08-05T19:44:18.382Z,999.90
2022-08-05T19:46:46.176Z,999.90
2022-08-05T19:49:17.004Z,999.90
2022-08-05T19:52:09.219Z,999.90
2022-08-05T19:54:34.835Z,999.90
2022-08-05T19:57:06.669Z,999.90
2022-08-05T19:59:56.004Z,999.90
2022-08-05T20:02:27.030Z,999.90
2022-08-05T20:04:58.273Z,999.90
2022-08-05T20:07:47.981Z,999.90
2022-08-05T20:10:16.631Z,999.90
2022-08-05T20:12:47.808Z,999.90
2022-08-05T20:15:23.329Z,999.90
2022-08-05T20:18:10.384Z,999.90
2022-08-05T20:20:57.162Z,999.90
2022-08-05T20:23:40.765Z,999.90
2022-08-05T20:26:16.083Z,999.90
2022-08-05T20:28:56.797Z,999.90
2022-08-05T20:31:37.074Z,999.90
2022-08-05T20:34:11.730Z,999.90
2022-08-05T20:36:43.425Z,999.90
2022-08-05T20:39:13.309Z,999.90
2022-08-05T20:41:44.027Z,999.90
2022-08-05T20:44:28.999Z,999.90
2022-08-05T20:46:59.805Z,999.90
2022-08-05T20:49:27.386Z,999.90
2022-08-05T20:51:55.723Z,999.90
2022-08-05T20:54:55.418Z,999.90
2022-08-05T20:57:15.005Z,999.90
2022-08-05T21:00:20.738Z,999.90
2022-08-05T21:02:54.488Z,999.90
2022-08-05T21:05:24.541Z,999.90
2022-08-05T21:07:52.560Z,999.90
2022-08-05T21:10:20.767Z,999.90
2022-08-05T21:12:58.114Z,999.90
2022-08-05T21:15:36.779Z,999.90
2022-08-05T21:18:04.551Z,999.90
2022-08-05T21:20:32.753Z,999.90
2022-08-05T21:23:00.922Z,999.90
2022-08-05T21:25:33.550Z,999.90
2022-08-05T21:28:02.448Z,999.90
2022-08-05T21:30:37.123Z,999.90
2022-08-05T21:33:08.365Z,397.88
2022-08-05T21:35:56.007Z,999.90
2022-08-05T21:38:26.661Z,832.80
2022-08-05T21:40:54.008Z,596.33
2022-08-05T21:43:24.534Z,477.40
2022-08-05T21:45:57.727Z,686.37
2022-08-05T21:48:31.730Z,731.60
2022-08-05T21:51:01.585Z,750.27
2022-08-05T21:53:28.797Z,998.50
2022-08-05T21:56:16.340Z,990.30
2022-08-05T21:58:57.293Z,964.80
2022-08-05T22:01:26.311Z,948.67
2022-08-05T22:03:56.446Z,941.53
2022-08-05T22:06:35.361Z,999.90
2022-08-05T22:09:15.182Z,999.90
2022-08-05T22:11:48.137Z,999.90
2022-08-05T22:14:35.176Z,999.90
2022-08-05T22:17:07.011Z,997.20
2022-08-05T22:19:57.512Z,999.90
2022-08-05T22:22:27.254Z,998.47
2022-08-05T22:25:18.250Z,999.90
2022-08-05T22:28:04.854Z,995.97
2022-08-05T22:30:55.531Z,999.90
2022-08-05T22:33:55.818Z,999.90
2022-08-05T22:36:14.296Z,999.90
2022-08-05T22:38:48.063Z,999.90
2022-08-05T22:42:05.711Z,999.90
2022-08-05T22:44:06.213Z,929.77
2022-08-05T22:46:33.597Z,999.90
2022-08-05T22:49:07.970Z,999.90
2022-08-05T22:52:05.736Z,999.90
2022-08-05T22:54:36.117Z,997.13
2022-08-05T22:57:05.004Z,999.90
2022-08-05T22:59:48.333Z,999.90
2022-08-05T23:02:29.201Z,999.90
2022-08-05T23:05:01.904Z,999.90
2022-08-05T23:07:45.156Z,938.10
2022-08-05T23:10:20.008Z,999.90
2022-08-05T23:12:54.462Z,999.90
2022-08-05T23:15:29.859Z,999.90
2022-08-05T23:18:06.193Z,988.10
2022-08-05T23:20:39.504Z,960.30
2022-08-05T23:23:08.000Z,979.17
2022-08-05T23:25:52.859Z,899.33
2022-08-05T23:28:29.104Z,909.60
2022-08-05T23:31:15.839Z,874.33
2022-08-05T23:34:05.471Z,870.87
2022-08-05T23:36:40.161Z,828.40
2022-08-05T23:39:17.161Z,702.37
2022-08-05T23:41:51.635Z,802.27
2022-08-05T23:44:19.854Z,814.47
2022-08-05T23:46:49.871Z,822.47
2022-08-05T23:49:22.375Z,795.53
2022-08-05T23:52:11.349Z,912.43
2022-08-05T23:54:38.872Z,894.70
2022-08-05T23:57:07.015Z,930.30
